sensor_id;sensor_type;location;lat;lon;timestamp;temperature;humidity
16437;DHT22;8328;52.206;21.006;2024-02-26T00:01:43;7.90;99.90
16437;DHT22;8328;52.206;21.006;2024-02-26T00:04:09;7.90;99.90
16437;DHT22;8328;52.206;21.006;2024-02-26T00:06:35;7.90;99.90
16437;DHT22;8328;52.206;21.006;2024-02-26T00:09:02;7.80;99.90
16437;DHT22;8328;52.206;21.006;2024-02-26T00:11:31;7.80;99.90
16437;DHT22;8328;52.206;21.006;2024-02-26T00:13:57;7.70;99.90
16437;DHT22;8328;52.206;21.006;2024-02-26T00:16:23;7.70;99.90
16437;DHT22;8328;52.206;21.006;2024-02-26T00:18:49;7.70;99.90
16437;DHT22;8328;52.206;21.006;2024-02-26T00:21:15;7.70;99.90
16437;DHT22;8328;52.206;21.006;2024-02-26T00:23:41;7.70;99.90
16437;DHT22;8328;52.206;21.006;2024-02-26T00:26:07;7.70;99.90
16437;DHT22;8328;52.206;21.006;2024-02-26T00:28:33;7.60;99.90
16437;DHT22;8328;52.206;21.006;2024-02-26T00:31:00;7.60;99.90
16437;DHT22;8328;52.206;21.006;2024-02-26T00:33:26;7.60;99.90
16437;DHT22;8328;52.206;21.006;2024-02-26T00:35:52;7.60;99.90
16437;DHT22;8328;52.206;21.006;2024-02-26T00:38:18;7.70;99.90
16437;DHT22;8328;52.206;21.006;2024-02-26T00:40:44;7.60;99.90
16437;DHT22;8328;52.206;21.006;2024-02-26T00:43:10;7.60;99.90
16437;DHT22;8328;52.206;21.006;2024-02-26T00:45:36;7.60;99.90
16437;DHT22;8328;52.206;21.006;2024-02-26T00:48:01;7.60;99.90
16437;DHT22;8328;52.206;21.006;2024-02-26T00:50:31;7.60;99.90
16437;DHT22;8328;52.206;21.006;2024-02-26T00:52:57;10.20;99.90
16437;DHT22;8328;52.206;21.006;2024-02-26T00:55:22;7.50;99.90
16437;DHT22;8328;52.206;21.006;2024-02-26T00:57:48;7.50;99.90
16437;DHT22;8328;52.206;21.006;2024-02-26T01:00:14;7.50;99.90
16437;DHT22;8328;52.206;21.006;2024-02-26T01:02:40;7.40;99.90
16437;DHT22;8328;52.206;21.006;2024-02-26T01:05:08;7.40;99.90
16437;DHT22;8328;52.206;21.006;2024-02-26T01:07:36;7.40;99.90
16437;DHT22;8328;52.206;21.006;2024-02-26T01:10:02;7.40;99.90
16437;DHT22;8328;52.206;21.006;2024-02-26T01:12:28;7.30;99.90
16437;DHT22;8328;52.206;21.006;2024-02-26T01:14:54;7.30;99.90
16437;DHT22;8328;52.206;21.006;2024-02-26T01:17:20;7.30;99.90
16437;DHT22;8328;52.206;21.006;2024-02-26T01:19:46;7.30;99.90
16437;DHT22;8328;52.206;21.006;2024-02-26T01:22:11;7.30;99.90
16437;DHT22;8328;52.206;21.006;2024-02-26T01:24:37;7.20;99.90
16437;DHT22;8328;52.206;21.006;2024-02-26T01:27:03;7.20;99.90
16437;DHT22;8328;52.206;21.006;2024-02-26T01:29:29;7.20;99.90
16437;DHT22;8328;52.206;21.006;2024-02-26T01:31:55;7.20;99.90
16437;DHT22;8328;52.206;21.006;2024-02-26T01:34:21;7.10;99.90
16437;DHT22;8328;52.206;21.006;2024-02-26T01:36:47;7.20;99.90
16437;DHT22;8328;52.206;21.006;2024-02-26T01:39:13;7.10;99.90
16437;DHT22;8328;52.206;21.006;2024-02-26T01:41:39;7.10;99.90
16437;DHT22;8328;52.206;21.006;2024-02-26T01:44:07;7.00;99.90
16437;DHT22;8328;52.206;21.006;2024-02-26T01:46:34;7.00;99.90
16437;DHT22;8328;52.206;21.006;2024-02-26T01:49:01;7.00;99.90
16437;DHT22;8328;52.206;21.006;2024-02-26T01:51:28;6.90;99.90
16437;DHT22;8328;52.206;21.006;2024-02-26T01:53:54;6.90;99.90
16437;DHT22;8328;52.206;21.006;2024-02-26T01:56:20;6.90;99.90
16437;DHT22;8328;52.206;21.006;2024-02-26T01:58:47;6.90;99.90
16437;DHT22;8328;52.206;21.006;2024-02-26T02:01:16;6.90;99.90
16437;DHT22;8328;52.206;21.006;2024-02-26T02:03:45;6.90;99.90
16437;DHT22;8328;52.206;21.006;2024-02-26T02:06:12;6.90;99.90
16437;DHT22;8328;52.206;21.006;2024-02-26T02:08:38;6.90;99.90
16437;DHT22;8328;52.206;21.006;2024-02-26T02:11:04;6.80;99.90
16437;DHT22;8328;52.206;21.006;2024-02-26T02:13:31;6.80;99.90
16437;DHT22;8328;52.206;21.006;2024-02-26T02:15:57;6.70;99.90
16437;DHT22;8328;52.206;21.006;2024-02-26T02:18:23;6.80;99.90
16437;DHT22;8328;52.206;21.006;2024-02-26T02:20:48;6.70;99.90
16437;DHT22;8328;52.206;21.006;2024-02-26T02:23:14;6.70;99.90
16437;DHT22;8328;52.206;21.006;2024-02-26T02:25:40;6.60;99.90
16437;DHT22;8328;52.206;21.006;2024-02-26T02:28:06;6.60;99.90
16437;DHT22;8328;52.206;21.006;2024-02-26T02:30:32;6.60;99.90
16437;DHT22;8328;52.206;21.006;2024-02-26T02:32:59;6.60;99.90
16437;DHT22;8328;52.206;21.006;2024-02-26T02:35:25;6.60;99.90
16437;DHT22;8328;52.206;21.006;2024-02-26T02:37:55;6.60;99.90
16437;DHT22;8328;52.206;21.006;2024-02-26T02:40:21;6.60;99.90
16437;DHT22;8328;52.206;21.006;2024-02-26T02:42:47;6.60;99.90
16437;DHT22;8328;52.206;21.006;2024-02-26T02:45:13;6.70;99.90
16437;DHT22;8328;52.206;21.006;2024-02-26T02:47:38;6.40;99.90
16437;DHT22;8328;52.206;21.006;2024-02-26T02:50:05;6.70;99.90
16437;DHT22;8328;52.206;21.006;2024-02-26T02:52:31;6.70;99.90
16437;DHT22;8328;52.206;21.006;2024-02-26T02:54:57;6.30;99.90
16437;DHT22;8328;52.206;21.006;2024-02-26T02:57:23;6.70;99.90
16437;DHT22;8328;52.206;21.006;2024-02-26T02:59:49;6.70;99.90
16437;DHT22;8328;52.206;21.006;2024-02-26T03:02:15;6.70;99.90
16437;DHT22;8328;52.206;21.006;2024-02-26T03:04:41;6.60;99.90
16437;DHT22;8328;52.206;21.006;2024-02-26T03:07:06;6.60;99.90
16437;DHT22;8328;52.206;21.006;2024-02-26T03:09:32;6.60;99.90
16437;DHT22;8328;52.206;21.006;2024-02-26T03:11:58;6.60;99.90
16437;DHT22;8328;52.206;21.006;2024-02-26T03:14:24;6.60;99.90
16437;DHT22;8328;52.206;21.006;2024-02-26T03:16:56;6.60;99.90
16437;DHT22;8328;52.206;21.006;2024-02-26T03:19:24;6.70;99.90
16437;DHT22;8328;52.206;21.006;2024-02-26T03:21:50;6.60;99.90
16437;DHT22;8328;52.206;21.006;2024-02-26T03:24:16;6.70;99.90
16437;DHT22;8328;52.206;21.006;2024-02-26T03:26:42;6.60;99.90
16437;DHT22;8328;52.206;21.006;2024-02-26T03:29:08;6.60;99.90
16437;DHT22;8328;52.206;21.006;2024-02-26T03:31:34;6.60;99.90
16437;DHT22;8328;52.206;21.006;2024-02-26T03:34:00;6.50;99.90
16437;DHT22;8328;52.206;21.006;2024-02-26T03:36:26;6.50;99.90
16437;DHT22;8328;52.206;21.006;2024-02-26T03:38:52;6.50;99.90
16437;DHT22;8328;52.206;21.006;2024-02-26T03:41:18;6.50;99.90
16437;DHT22;8328;52.206;21.006;2024-02-26T03:43:44;6.50;99.90
16437;DHT22;8328;52.206;21.006;2024-02-26T03:46:10;6.40;99.90
16437;DHT22;8328;52.206;21.006;2024-02-26T03:48:40;6.40;99.90
16437;DHT22;8328;52.206;21.006;2024-02-26T03:51:05;6.40;99.90
16437;DHT22;8328;52.206;21.006;2024-02-26T03:53:31;6.40;99.90
16437;DHT22;8328;52.206;21.006;2024-02-26T03:55:57;6.50;99.90
16437;DHT22;8328;52.206;21.006;2024-02-26T03:58:23;6.40;99.90
16437;DHT22;8328;52.206;21.006;2024-02-26T04:00:48;6.40;99.90
16437;DHT22;8328;52.206;21.006;2024-02-26T04:03:14;6.50;99.90
16437;DHT22;8328;52.206;21.006;2024-02-26T04:05:40;6.50;99.90
16437;DHT22;8328;52.206;21.006;2024-02-26T04:08:06;6.50;99.90
16437;DHT22;8328;52.206;21.006;2024-02-26T04:10:33;6.50;99.90
16437;DHT22;8328;52.206;21.006;2024-02-26T04:13:01;6.50;99.90
16437;DHT22;8328;52.206;21.006;2024-02-26T04:15:26;6.50;99.90
16437;DHT22;8328;52.206;21.006;2024-02-26T04:17:52;6.40;99.90
16437;DHT22;8328;52.206;21.006;2024-02-26T04:20:18;6.40;99.90
16437;DHT22;8328;52.206;21.006;2024-02-26T04:22:44;6.40;99.90
16437;DHT22;8328;52.206;21.006;2024-02-26T04:25:10;6.40;99.90
16437;DHT22;8328;52.206;21.006;2024-02-26T04:27:36;6.40;99.90
16437;DHT22;8328;52.206;21.006;2024-02-26T04:30:03;6.40;99.90
16437;DHT22;8328;52.206;21.006;2024-02-26T04:32:29;6.40;99.90
16437;DHT22;8328;52.206;21.006;2024-02-26T04:34:55;6.40;99.90
16437;DHT22;8328;52.206;21.006;2024-02-26T04:37:21;6.40;99.90
16437;DHT22;8328;52.206;21.006;2024-02-26T04:39:46;6.40;99.90
16437;DHT22;8328;52.206;21.006;2024-02-26T04:42:12;6.40;99.90
16437;DHT22;8328;52.206;21.006;2024-02-26T04:44:38;6.30;99.90
16437;DHT22;8328;52.206;21.006;2024-02-26T04:47:04;6.30;99.90
16437;DHT22;8328;52.206;21.006;2024-02-26T04:49:30;6.30;99.90
16437;DHT22;8328;52.206;21.006;2024-02-26T04:51:55;6.30;99.90
16437;DHT22;8328;52.206;21.006;2024-02-26T04:54:24;6.30;99.90
16437;DHT22;8328;52.206;21.006;2024-02-26T04:56:50;6.30;99.90
16437;DHT22;8328;52.206;21.006;2024-02-26T04:59:16;6.20;99.90
16437;DHT22;8328;52.206;21.006;2024-02-26T05:01:41;6.30;99.90
16437;DHT22;8328;52.206;21.006;2024-02-26T05:04:07;6.30;99.90
16437;DHT22;8328;52.206;21.006;2024-02-26T05:06:33;6.20;99.90
16437;DHT22;8328;52.206;21.006;2024-02-26T05:08:59;6.20;99.90
16437;DHT22;8328;52.206;21.006;2024-02-26T05:11:25;6.30;99.90
16437;DHT22;8328;52.206;21.006;2024-02-26T05:13:51;6.30;99.90
16437;DHT22;8328;52.206;21.006;2024-02-26T05:16:17;6.30;99.90
16437;DHT22;8328;52.206;21.006;2024-02-26T05:18:42;6.40;99.90
16437;DHT22;8328;52.206;21.006;2024-02-26T05:21:09;6.40;99.90
16437;DHT22;8328;52.206;21.006;2024-02-26T05:23:35;6.50;99.90
16437;DHT22;8328;52.206;21.006;2024-02-26T05:26:01;6.60;99.90
16437;DHT22;8328;52.206;21.006;2024-02-26T05:28:27;6.70;99.90
16437;DHT22;8328;52.206;21.006;2024-02-26T05:30:52;6.70;99.90
16437;DHT22;8328;52.206;21.006;2024-02-26T05:33:18;6.90;99.90
16437;DHT22;8328;52.206;21.006;2024-02-26T05:35:44;6.90;99.90
16437;DHT22;8328;52.206;21.006;2024-02-26T05:38:10;6.90;99.90
16437;DHT22;8328;52.206;21.006;2024-02-26T05:40:35;7.00;99.90
16437;DHT22;8328;52.206;21.006;2024-02-26T05:43:01;7.00;99.90
16437;DHT22;8328;52.206;21.006;2024-02-26T05:45:27;7.10;99.90
16437;DHT22;8328;52.206;21.006;2024-02-26T05:47:53;7.20;99.90
16437;DHT22;8328;52.206;21.006;2024-02-26T05:50:18;7.30;99.90
16437;DHT22;8328;52.206;21.006;2024-02-26T05:52:44;7.30;99.90
16437;DHT22;8328;52.206;21.006;2024-02-26T05:55:10;7.30;99.90
16437;DHT22;8328;52.206;21.006;2024-02-26T05:57:36;7.30;99.90
16437;DHT22;8328;52.206;21.006;2024-02-26T06:00:02;7.40;99.90
16437;DHT22;8328;52.206;21.006;2024-02-26T06:02:31;7.50;99.90
16437;DHT22;8328;52.206;21.006;2024-02-26T06:04:57;7.60;99.90
16437;DHT22;8328;52.206;21.006;2024-02-26T06:07:23;7.70;99.90
16437;DHT22;8328;52.206;21.006;2024-02-26T06:09:49;7.80;99.90
16437;DHT22;8328;52.206;21.006;2024-02-26T06:12:15;7.90;99.90
16437;DHT22;8328;52.206;21.006;2024-02-26T06:14:43;7.90;99.90
16437;DHT22;8328;52.206;21.006;2024-02-26T06:17:09;7.90;99.90
16437;DHT22;8328;52.206;21.006;2024-02-26T06:19:34;8.00;99.90
16437;DHT22;8328;52.206;21.006;2024-02-26T06:22:00;8.10;99.90
16437;DHT22;8328;52.206;21.006;2024-02-26T06:24:26;8.10;99.90
16437;DHT22;8328;52.206;21.006;2024-02-26T06:26:52;8.20;99.90
16437;DHT22;8328;52.206;21.006;2024-02-26T06:29:18;8.70;99.90
16437;DHT22;8328;52.206;21.006;2024-02-26T06:31:43;8.80;99.90
16437;DHT22;8328;52.206;21.006;2024-02-26T06:34:09;9.10;99.90
16437;DHT22;8328;52.206;21.006;2024-02-26T06:36:35;9.30;99.90
16437;DHT22;8328;52.206;21.006;2024-02-26T06:39:01;9.30;99.90
16437;DHT22;8328;52.206;21.006;2024-02-26T06:41:26;9.10;99.90
16437;DHT22;8328;52.206;21.006;2024-02-26T06:43:55;9.40;99.90
16437;DHT22;8328;52.206;21.006;2024-02-26T06:46:21;9.50;99.90
16437;DHT22;8328;52.206;21.006;2024-02-26T06:48:51;9.70;99.90
16437;DHT22;8328;52.206;21.006;2024-02-26T06:51:17;9.80;99.90
16437;DHT22;8328;52.206;21.006;2024-02-26T06:53:43;9.60;99.90
16437;DHT22;8328;52.206;21.006;2024-02-26T06:56:09;9.00;99.90
16437;DHT22;8328;52.206;21.006;2024-02-26T06:58:34;10.10;99.90
16437;DHT22;8328;52.206;21.006;2024-02-26T07:01:00;10.30;99.90
16437;DHT22;8328;52.206;21.006;2024-02-26T07:03:26;9.70;99.90
16437;DHT22;8328;52.206;21.006;2024-02-26T07:05:52;10.20;99.90
16437;DHT22;8328;52.206;21.006;2024-02-26T07:08:18;10.20;99.90
16437;DHT22;8328;52.206;21.006;2024-02-26T07:10:44;9.90;99.90
16437;DHT22;8328;52.206;21.006;2024-02-26T07:13:09;9.90;99.90
16437;DHT22;8328;52.206;21.006;2024-02-26T07:15:35;10.00;99.90
16437;DHT22;8328;52.206;21.006;2024-02-26T07:18:01;10.20;99.90
16437;DHT22;8328;52.206;21.006;2024-02-26T07:20:30;10.20;99.90
16437;DHT22;8328;52.206;21.006;2024-02-26T07:22:56;10.30;99.90
16437;DHT22;8328;52.206;21.006;2024-02-26T07:25:22;10.40;99.90
16437;DHT22;8328;52.206;21.006;2024-02-26T07:27:50;10.50;99.90
16437;DHT22;8328;52.206;21.006;2024-02-26T07:30:16;10.60;99.90
16437;DHT22;8328;52.206;21.006;2024-02-26T07:32:42;10.70;99.90
16437;DHT22;8328;52.206;21.006;2024-02-26T07:35:08;10.90;99.90
16437;DHT22;8328;52.206;21.006;2024-02-26T07:37:34;11.00;99.90
16437;DHT22;8328;52.206;21.006;2024-02-26T07:40:00;11.20;99.90
16437;DHT22;8328;52.206;21.006;2024-02-26T07:42:26;11.40;99.90
16437;DHT22;8328;52.206;21.006;2024-02-26T07:44:52;11.70;99.90
16437;DHT22;8328;52.206;21.006;2024-02-26T07:47:19;12.00;99.90
16437;DHT22;8328;52.206;21.006;2024-02-26T07:49:44;12.50;99.90
16437;DHT22;8328;52.206;21.006;2024-02-26T07:52:10;12.70;99.90
16437;DHT22;8328;52.206;21.006;2024-02-26T07:54:36;12.70;99.90
16437;DHT22;8328;52.206;21.006;2024-02-26T07:57:02;12.60;99.90
16437;DHT22;8328;52.206;21.006;2024-02-26T07:59:31;12.60;99.90
16437;DHT22;8328;52.206;21.006;2024-02-26T08:01:57;12.60;99.90
16437;DHT22;8328;52.206;21.006;2024-02-26T08:04:22;12.50;99.90
16437;DHT22;8328;52.206;21.006;2024-02-26T08:06:48;12.50;99.90
16437;DHT22;8328;52.206;21.006;2024-02-26T08:09:14;12.40;99.90
16437;DHT22;8328;52.206;21.006;2024-02-26T08:11:42;12.50;99.90
16437;DHT22;8328;52.206;21.006;2024-02-26T08:14:08;12.40;99.90
16437;DHT22;8328;52.206;21.006;2024-02-26T08:16:34;12.50;99.90
16437;DHT22;8328;52.206;21.006;2024-02-26T08:19:00;12.60;99.90
16437;DHT22;8328;52.206;21.006;2024-02-26T08:21:25;12.50;99.90
16437;DHT22;8328;52.206;21.006;2024-02-26T08:23:51;12.50;99.90
16437;DHT22;8328;52.206;21.006;2024-02-26T08:26:17;12.60;99.90
16437;DHT22;8328;52.206;21.006;2024-02-26T08:28:45;12.50;99.90
16437;DHT22;8328;52.206;21.006;2024-02-26T08:31:13;12.70;99.90
16437;DHT22;8328;52.206;21.006;2024-02-26T08:33:38;12.80;99.90
16437;DHT22;8328;52.206;21.006;2024-02-26T08:36:05;12.80;99.90
16437;DHT22;8328;52.206;21.006;2024-02-26T08:38:31;12.90;99.90
16437;DHT22;8328;52.206;21.006;2024-02-26T08:40:57;12.90;99.90
16437;DHT22;8328;52.206;21.006;2024-02-26T08:43:23;12.90;99.90
16437;DHT22;8328;52.206;21.006;2024-02-26T08:45:48;13.00;99.90
16437;DHT22;8328;52.206;21.006;2024-02-26T08:48:14;12.90;99.90
16437;DHT22;8328;52.206;21.006;2024-02-26T08:50:41;13.00;99.90
16437;DHT22;8328;52.206;21.006;2024-02-26T08:53:07;13.00;99.90
16437;DHT22;8328;52.206;21.006;2024-02-26T08:55:33;12.90;99.90
16437;DHT22;8328;52.206;21.006;2024-02-26T08:57:59;13.00;99.90
16437;DHT22;8328;52.206;21.006;2024-02-26T09:00:25;12.50;99.90
16437;DHT22;8328;52.206;21.006;2024-02-26T09:02:50;12.80;99.90
16437;DHT22;8328;52.206;21.006;2024-02-26T09:05:16;12.80;99.90
16437;DHT22;8328;52.206;21.006;2024-02-26T09:07:45;12.90;99.90
16437;DHT22;8328;52.206;21.006;2024-02-26T09:10:12;12.90;99.90
16437;DHT22;8328;52.206;21.006;2024-02-26T09:12:38;12.90;99.90
16437;DHT22;8328;52.206;21.006;2024-02-26T09:15:06;13.30;99.90
16437;DHT22;8328;52.206;21.006;2024-02-26T09:17:32;13.70;99.90
16437;DHT22;8328;52.206;21.006;2024-02-26T09:19:58;14.30;99.90
16437;DHT22;8328;52.206;21.006;2024-02-26T09:22:24;14.60;99.90
16437;DHT22;8328;52.206;21.006;2024-02-26T09:24:50;14.90;99.90
16437;DHT22;8328;52.206;21.006;2024-02-26T09:27:18;15.00;99.90
16437;DHT22;8328;52.206;21.006;2024-02-26T09:29:43;15.20;99.90
16437;DHT22;8328;52.206;21.006;2024-02-26T09:32:09;15.40;99.90
16437;DHT22;8328;52.206;21.006;2024-02-26T09:34:35;15.60;99.90
16437;DHT22;8328;52.206;21.006;2024-02-26T09:37:02;15.70;99.90
16437;DHT22;8328;52.206;21.006;2024-02-26T09:39:28;15.90;99.90
16437;DHT22;8328;52.206;21.006;2024-02-26T09:41:54;17.30;99.90
16437;DHT22;8328;52.206;21.006;2024-02-26T09:44:20;15.60;99.90
16437;DHT22;8328;52.206;21.006;2024-02-26T09:46:51;15.80;99.90
16437;DHT22;8328;52.206;21.006;2024-02-26T09:49:19;15.70;99.90
16437;DHT22;8328;52.206;21.006;2024-02-26T09:51:49;15.70;99.90
16437;DHT22;8328;52.206;21.006;2024-02-26T09:54:17;15.80;99.90
16437;DHT22;8328;52.206;21.006;2024-02-26T09:56:45;15.60;99.90
16437;DHT22;8328;52.206;21.006;2024-02-26T09:59:17;16.00;99.90
16437;DHT22;8328;52.206;21.006;2024-02-26T10:01:44;16.10;99.90
16437;DHT22;8328;52.206;21.006;2024-02-26T10:04:12;16.10;99.90
16437;DHT22;8328;52.206;21.006;2024-02-26T10:06:39;16.10;99.90
16437;DHT22;8328;52.206;21.006;2024-02-26T10:09:06;16.10;99.90
16437;DHT22;8328;52.206;21.006;2024-02-26T10:11:35;16.00;99.90
16437;DHT22;8328;52.206;21.006;2024-02-26T10:14:03;15.80;99.90
16437;DHT22;8328;52.206;21.006;2024-02-26T10:16:29;15.60;99.90
16437;DHT22;8328;52.206;21.006;2024-02-26T10:18:55;15.40;99.90
16437;DHT22;8328;52.206;21.006;2024-02-26T10:21:21;15.50;99.90
16437;DHT22;8328;52.206;21.006;2024-02-26T10:23:48;15.60;99.90
16437;DHT22;8328;52.206;21.006;2024-02-26T10:26:15;15.40;99.90
16437;DHT22;8328;52.206;21.006;2024-02-26T10:28:45;15.60;99.90
16437;DHT22;8328;52.206;21.006;2024-02-26T10:31:11;15.50;99.90
16437;DHT22;8328;52.206;21.006;2024-02-26T10:33:39;15.10;99.90
16437;DHT22;8328;52.206;21.006;2024-02-26T10:36:06;15.00;99.90
16437;DHT22;8328;52.206;21.006;2024-02-26T10:38:34;15.20;99.90
16437;DHT22;8328;52.206;21.006;2024-02-26T10:41:04;15.30;99.90
16437;DHT22;8328;52.206;21.006;2024-02-26T10:43:31;15.30;99.90
16437;DHT22;8328;52.206;21.006;2024-02-26T10:45:57;15.00;99.90
16437;DHT22;8328;52.206;21.006;2024-02-26T10:48:23;15.00;99.90
16437;DHT22;8328;52.206;21.006;2024-02-26T10:50:49;15.10;99.90
16437;DHT22;8328;52.206;21.006;2024-02-26T10:53:22;15.10;99.90
16437;DHT22;8328;52.206;21.006;2024-02-26T10:55:57;15.10;99.90
16437;DHT22;8328;52.206;21.006;2024-02-26T10:58:23;15.10;99.90
16437;DHT22;8328;52.206;21.006;2024-02-26T11:00:53;15.20;99.90
16437;DHT22;8328;52.206;21.006;2024-02-26T11:03:28;15.30;99.90
16437;DHT22;8328;52.206;21.006;2024-02-26T11:06:01;15.50;99.90
16437;DHT22;8328;52.206;21.006;2024-02-26T11:08:28;15.60;99.90
16437;DHT22;8328;52.206;21.006;2024-02-26T11:10:55;15.70;99.90
16437;DHT22;8328;52.206;21.006;2024-02-26T11:13:25;15.70;99.90
16437;DHT22;8328;52.206;21.006;2024-02-26T11:15:53;15.80;99.90
16437;DHT22;8328;52.206;21.006;2024-02-26T11:18:20;15.70;99.90
16437;DHT22;8328;52.206;21.006;2024-02-26T11:20:48;15.80;99.90
16437;DHT22;8328;52.206;21.006;2024-02-26T11:23:14;16.10;99.90
16437;DHT22;8328;52.206;21.006;2024-02-26T11:25:40;17.00;99.90
16437;DHT22;8328;52.206;21.006;2024-02-26T11:28:11;17.90;99.90
16437;DHT22;8328;52.206;21.006;2024-02-26T11:30:41;18.00;99.90
16437;DHT22;8328;52.206;21.006;2024-02-26T11:33:09;17.80;99.90
16437;DHT22;8328;52.206;21.006;2024-02-26T11:35:38;17.40;99.90
16437;DHT22;8328;52.206;21.006;2024-02-26T11:38:06;17.30;99.90
16437;DHT22;8328;52.206;21.006;2024-02-26T11:40:33;17.20;99.90
16437;DHT22;8328;52.206;21.006;2024-02-26T11:43:04;17.10;99.90
16437;DHT22;8328;52.206;21.006;2024-02-26T11:48:11;17.30;99.90
16437;DHT22;8328;52.206;21.006;2024-02-26T11:50:40;17.90;99.90
16437;DHT22;8328;52.206;21.006;2024-02-26T11:53:26;18.70;99.90
16437;DHT22;8328;52.206;21.006;2024-02-26T11:56:25;18.80;99.90
16437;DHT22;8328;52.206;21.006;2024-02-26T11:58:59;19.10;99.90
16437;DHT22;8328;52.206;21.006;2024-02-26T12:01:41;18.80;99.90
16437;DHT22;8328;52.206;21.006;2024-02-26T12:04:12;19.00;99.90
16437;DHT22;8328;52.206;21.006;2024-02-26T12:09:11;18.50;99.90
16437;DHT22;8328;52.206;21.006;2024-02-26T12:11:42;18.70;99.90
16437;DHT22;8328;52.206;21.006;2024-02-26T12:14:11;18.90;99.90
16437;DHT22;8328;52.206;21.006;2024-02-26T12:16:38;19.60;99.90
16437;DHT22;8328;52.206;21.006;2024-02-26T12:19:05;19.80;99.90
16437;DHT22;8328;52.206;21.006;2024-02-26T12:21:36;19.70;99.90
16437;DHT22;8328;52.206;21.006;2024-02-26T12:24:12;18.60;99.90
16437;DHT22;8328;52.206;21.006;2024-02-26T12:26:39;19.10;99.90
16437;DHT22;8328;52.206;21.006;2024-02-26T12:29:05;18.80;99.90
16437;DHT22;8328;52.206;21.006;2024-02-26T12:31:32;18.40;99.90
16437;DHT22;8328;52.206;21.006;2024-02-26T12:34:01;18.40;99.90
16437;DHT22;8328;52.206;21.006;2024-02-26T12:36:27;18.10;99.90
16437;DHT22;8328;52.206;21.006;2024-02-26T12:38:53;17.60;99.90
16437;DHT22;8328;52.206;21.006;2024-02-26T12:41:22;17.10;99.90
16437;DHT22;8328;52.206;21.006;2024-02-26T12:43:48;16.70;99.90
16437;DHT22;8328;52.206;21.006;2024-02-26T12:46:14;16.30;99.90
16437;DHT22;8328;52.206;21.006;2024-02-26T12:48:44;16.00;99.90
16437;DHT22;8328;52.206;21.006;2024-02-26T12:51:12;15.70;99.90
16437;DHT22;8328;52.206;21.006;2024-02-26T12:53:39;15.60;99.90
16437;DHT22;8328;52.206;21.006;2024-02-26T12:56:09;15.40;99.90
16437;DHT22;8328;52.206;21.006;2024-02-26T12:58:36;15.30;99.90
16437;DHT22;8328;52.206;21.006;2024-02-26T13:01:04;15.10;99.90
16437;DHT22;8328;52.206;21.006;2024-02-26T13:03:31;15.00;99.90
16437;DHT22;8328;52.206;21.006;2024-02-26T13:05:58;15.00;99.90
16437;DHT22;8328;52.206;21.006;2024-02-26T13:08:24;14.90;99.90
16437;DHT22;8328;52.206;21.006;2024-02-26T13:10:50;14.80;99.90
16437;DHT22;8328;52.206;21.006;2024-02-26T13:13:19;14.70;99.90
16437;DHT22;8328;52.206;21.006;2024-02-26T13:15:45;14.70;99.90
16437;DHT22;8328;52.206;21.006;2024-02-26T13:18:13;14.60;99.90
16437;DHT22;8328;52.206;21.006;2024-02-26T13:20:39;14.70;99.90
16437;DHT22;8328;52.206;21.006;2024-02-26T13:23:11;14.60;99.90
16437;DHT22;8328;52.206;21.006;2024-02-26T13:25:38;14.60;99.90
16437;DHT22;8328;52.206;21.006;2024-02-26T13:28:07;14.60;99.90
16437;DHT22;8328;52.206;21.006;2024-02-26T13:30:34;14.60;99.90
16437;DHT22;8328;52.206;21.006;2024-02-26T13:33:10;14.60;99.90
16437;DHT22;8328;52.206;21.006;2024-02-26T13:35:36;14.50;99.90
16437;DHT22;8328;52.206;21.006;2024-02-26T13:38:02;14.60;99.90
16437;DHT22;8328;52.206;21.006;2024-02-26T13:40:28;14.60;99.90
16437;DHT22;8328;52.206;21.006;2024-02-26T13:42:54;14.60;99.90
16437;DHT22;8328;52.206;21.006;2024-02-26T13:45:20;14.60;99.90
16437;DHT22;8328;52.206;21.006;2024-02-26T13:47:46;14.70;99.90
16437;DHT22;8328;52.206;21.006;2024-02-26T13:50:12;14.60;99.90
16437;DHT22;8328;52.206;21.006;2024-02-26T13:52:40;14.70;99.90
16437;DHT22;8328;52.206;21.006;2024-02-26T13:55:06;14.70;99.90
16437;DHT22;8328;52.206;21.006;2024-02-26T13:57:35;14.70;99.90
16437;DHT22;8328;52.206;21.006;2024-02-26T14:00:01;14.70;99.90
16437;DHT22;8328;52.206;21.006;2024-02-26T14:02:27;14.70;99.90
16437;DHT22;8328;52.206;21.006;2024-02-26T14:04:52;14.70;99.90
16437;DHT22;8328;52.206;21.006;2024-02-26T14:07:19;14.70;99.90
16437;DHT22;8328;52.206;21.006;2024-02-26T14:09:45;14.70;99.90
16437;DHT22;8328;52.206;21.006;2024-02-26T14:12:11;14.60;99.90
16437;DHT22;8328;52.206;21.006;2024-02-26T14:14:37;14.60;99.90
16437;DHT22;8328;52.206;21.006;2024-02-26T14:17:04;14.60;99.90
16437;DHT22;8328;52.206;21.006;2024-02-26T14:19:31;14.50;99.90
16437;DHT22;8328;52.206;21.006;2024-02-26T14:21:57;14.50;99.90
16437;DHT22;8328;52.206;21.006;2024-02-26T14:24:22;14.50;99.90
16437;DHT22;8328;52.206;21.006;2024-02-26T14:26:48;14.50;99.90
16437;DHT22;8328;52.206;21.006;2024-02-26T14:29:14;14.50;99.90
16437;DHT22;8328;52.206;21.006;2024-02-26T14:31:41;14.50;99.90
16437;DHT22;8328;52.206;21.006;2024-02-26T14:34:07;14.50;99.90
16437;DHT22;8328;52.206;21.006;2024-02-26T14:36:34;14.60;99.90
16437;DHT22;8328;52.206;21.006;2024-02-26T14:39:00;14.70;99.90
16437;DHT22;8328;52.206;21.006;2024-02-26T14:41:26;14.70;99.90
16437;DHT22;8328;52.206;21.006;2024-02-26T14:43:52;14.80;99.90
16437;DHT22;8328;52.206;21.006;2024-02-26T14:46:18;14.80;99.90
16437;DHT22;8328;52.206;21.006;2024-02-26T14:48:43;14.80;99.90
16437;DHT22;8328;52.206;21.006;2024-02-26T14:51:09;14.80;99.90
16437;DHT22;8328;52.206;21.006;2024-02-26T14:53:35;14.80;99.90
16437;DHT22;8328;52.206;21.006;2024-02-26T14:56:01;14.70;99.90
16437;DHT22;8328;52.206;21.006;2024-02-26T14:58:26;14.90;99.90
16437;DHT22;8328;52.206;21.006;2024-02-26T15:00:52;14.60;99.90
16437;DHT22;8328;52.206;21.006;2024-02-26T15:03:18;14.20;99.90
16437;DHT22;8328;52.206;21.006;2024-02-26T15:05:44;14.40;99.90
16437;DHT22;8328;52.206;21.006;2024-02-26T15:08:10;14.30;99.90
16437;DHT22;8328;52.206;21.006;2024-02-26T15:10:40;14.20;99.90
16437;DHT22;8328;52.206;21.006;2024-02-26T15:13:13;14.20;99.90
16437;DHT22;8328;52.206;21.006;2024-02-26T15:15:38;14.20;99.90
16437;DHT22;8328;52.206;21.006;2024-02-26T15:18:07;14.20;99.90
16437;DHT22;8328;52.206;21.006;2024-02-26T15:20:33;14.10;99.90
16437;DHT22;8328;52.206;21.006;2024-02-26T15:22:59;14.00;99.90
16437;DHT22;8328;52.206;21.006;2024-02-26T15:25:25;13.90;99.90
16437;DHT22;8328;52.206;21.006;2024-02-26T15:27:51;13.90;99.90
16437;DHT22;8328;52.206;21.006;2024-02-26T15:30:17;13.90;99.90
16437;DHT22;8328;52.206;21.006;2024-02-26T15:32:43;13.80;99.90
16437;DHT22;8328;52.206;21.006;2024-02-26T15:35:09;13.80;99.90
16437;DHT22;8328;52.206;21.006;2024-02-26T15:37:35;13.80;99.90
16437;DHT22;8328;52.206;21.006;2024-02-26T15:40:01;13.70;99.90